sensor_id;sensor_type;location;lat;lon;timestamp;P1;durP1;ratioP1;P2;durP2;ratioP2
30173;SDS011;16985;50.814;8.530;2022-09-09T00:04:09;1.88;;;0.93;;
30173;SDS011;16985;50.814;8.530;2022-09-09T00:06:45;2.70;;;1.38;;
30173;SDS011;16985;50.814;8.530;2022-09-09T00:09:38;3.72;;;1.85;;
30173;SDS011;16985;50.814;8.530;2022-09-09T00:12:31;7.43;;;1.88;;
30173;SDS011;16985;50.814;8.530;2022-09-09T00:15:16;3.38;;;1.45;;
30173;SDS011;16985;50.814;8.530;2022-09-09T00:17:47;4.60;;;1.60;;
30173;SDS011;16985;50.814;8.530;2022-09-09T00:31:37;3.92;;;1.40;;
30173;SDS011;16985;50.814;8.530;2022-09-09T00:34:11;4.07;;;1.75;;
30173;SDS011;16985;50.814;8.530;2022-09-09T00:36:39;2.90;;;1.65;;
30173;SDS011;16985;50.814;8.530;2022-09-09T00:39:08;2.50;;;1.60;;
30173;SDS011;16985;50.814;8.530;2022-09-09T00:42:15;2.97;;;1.60;;
30173;SDS011;16985;50.814;8.530;2022-09-09T00:44:51;3.13;;;1.80;;
30173;SDS011;16985;50.814;8.530;2022-09-09T00:47:20;4.28;;;2.10;;
30173;SDS011;16985;50.814;8.530;2022-09-09T00:56:20;3.63;;;1.77;;
30173;SDS011;16985;50.814;8.530;2022-09-09T00:58:54;2.05;;;1.73;;
30173;SDS011;16985;50.814;8.530;2022-09-09T01:01:30;2.65;;;1.60;;
30173;SDS011;16985;50.814;8.530;2022-09-09T01:03:56;2.67;;;1.52;;
30173;SDS011;16985;50.814;8.530;2022-09-09T01:06:32;4.10;;;1.63;;
30173;SDS011;16985;50.814;8.530;2022-09-09T01:12:09;4.32;;;1.70;;
30173;SDS011;16985;50.814;8.530;2022-09-09T01:14:51;6.80;;;1.67;;
30173;SDS011;16985;50.814;8.530;2022-09-09T01:17:30;2.25;;;1.40;;
30173;SDS011;16985;50.814;8.530;2022-09-09T01:28:29;4.03;;;1.65;;
30173;SDS011;16985;50.814;8.530;2022-09-09T01:31:01;2.15;;;1.40;;
30173;SDS011;16985;50.814;8.530;2022-09-09T01:33:36;1.30;;;1.20;;
30173;SDS011;16985;50.814;8.530;2022-09-09T01:36:09;3.10;;;1.45;;
30173;SDS011;16985;50.814;8.530;2022-09-09T01:38:47;2.63;;;1.40;;
30173;SDS011;16985;50.814;8.530;2022-09-09T01:41:14;5.10;;;1.63;;
30173;SDS011;16985;50.814;8.530;2022-09-09T01:43:52;4.30;;;1.85;;
30173;SDS011;16985;50.814;8.530;2022-09-09T01:46:21;2.65;;;1.20;;
30173;SDS011;16985;50.814;8.530;2022-09-09T01:48:48;2.45;;;1.35;;
30173;SDS011;16985;50.814;8.530;2022-09-09T01:51:18;2.20;;;1.45;;
30173;SDS011;16985;50.814;8.530;2022-09-09T01:53:44;3.47;;;1.83;;
30173;SDS011;16985;50.814;8.530;2022-09-09T01:59:14;2.75;;;1.20;;
30173;SDS011;16985;50.814;8.530;2022-09-09T02:04:54;3.65;;;1.35;;
30173;SDS011;16985;50.814;8.530;2022-09-09T02:07:48;2.03;;;1.30;;
30173;SDS011;16985;50.814;8.530;2022-09-09T02:10:31;1.92;;;1.67;;
30173;SDS011;16985;50.814;8.530;2022-09-09T02:13:19;3.45;;;1.40;;
30173;SDS011;16985;50.814;8.530;2022-09-09T02:18:35;2.15;;;1.50;;
30173;SDS011;16985;50.814;8.530;2022-09-09T02:21:33;3.95;;;1.10;;
30173;SDS011;16985;50.814;8.530;2022-09-09T02:24:02;3.35;;;1.40;;
30173;SDS011;16985;50.814;8.530;2022-09-09T02:26:38;4.53;;;1.27;;
30173;SDS011;16985;50.814;8.530;2022-09-09T02:29:09;3.58;;;1.50;;
30173;SDS011;16985;50.814;8.530;2022-09-09T02:31:41;4.10;;;1.50;;
30173;SDS011;16985;50.814;8.530;2022-09-09T02:34:13;2.45;;;1.80;;
30173;SDS011;16985;50.814;8.530;2022-09-09T02:36:41;3.57;;;1.40;;
30173;SDS011;16985;50.814;8.530;2022-09-09T02:39:09;2.95;;;1.40;;
30173;SDS011;16985;50.814;8.530;2022-09-09T02:41:37;2.28;;;1.30;;
30173;SDS011;16985;50.814;8.530;2022-09-09T02:44:10;2.95;;;1.42;;
30173;SDS011;16985;50.814;8.530;2022-09-09T02:58:15;2.63;;;1.58;;
30173;SDS011;16985;50.814;8.530;2022-09-09T03:00:50;5.15;;;1.70;;
30173;SDS011;16985;50.814;8.530;2022-09-09T03:03:17;4.40;;;1.80;;
30173;SDS011;16985;50.814;8.530;2022-09-09T03:05:47;1.63;;;1.40;;
30173;SDS011;16985;50.814;8.530;2022-09-09T03:08:13;2.30;;;1.42;;
30173;SDS011;16985;50.814;8.530;2022-09-09T03:10:40;6.38;;;1.70;;
30173;SDS011;16985;50.814;8.530;2022-09-09T03:13:05;3.30;;;1.50;;
30173;SDS011;16985;50.814;8.530;2022-09-09T03:15:35;5.75;;;1.55;;
30173;SDS011;16985;50.814;8.530;2022-09-09T03:18:01;2.40;;;1.17;;
30173;SDS011;16985;50.814;8.530;2022-09-09T03:20:27;2.70;;;1.30;;
30173;SDS011;16985;50.814;8.530;2022-09-09T03:22:56;2.60;;;1.48;;
30173;SDS011;16985;50.814;8.530;2022-09-09T03:25:22;2.67;;;1.35;;
30173;SDS011;16985;50.814;8.530;2022-09-09T03:27:51;1.70;;;1.15;;
30173;SDS011;16985;50.814;8.530;2022-09-09T03:30:23;2.80;;;1.35;;
30173;SDS011;16985;50.814;8.530;2022-09-09T03:32:53;6.70;;;1.65;;
30173;SDS011;16985;50.814;8.530;2022-09-09T03:37:47;3.72;;;1.50;;
30173;SDS011;16985;50.814;8.530;2022-09-09T03:40:14;1.88;;;1.20;;
30173;SDS011;16985;50.814;8.530;2022-09-09T03:42:41;4.23;;;1.40;;
30173;SDS011;16985;50.814;8.530;2022-09-09T03:45:08;2.90;;;1.60;;
30173;SDS011;16985;50.814;8.530;2022-09-09T03:47:36;6.10;;;1.75;;
30173;SDS011;16985;50.814;8.530;2022-09-09T03:50:05;2.90;;;1.50;;
30173;SDS011;16985;50.814;8.530;2022-09-09T03:52:36;1.83;;;1.17;;
30173;SDS011;16985;50.814;8.530;2022-09-09T03:55:05;5.70;;;1.73;;
30173;SDS011;16985;50.814;8.530;2022-09-09T03:57:32;2.22;;;1.10;;
30173;SDS011;16985;50.814;8.530;2022-09-09T04:00:03;4.22;;;1.50;;
30173;SDS011;16985;50.814;8.530;2022-09-09T04:02:41;4.72;;;1.65;;
30173;SDS011;16985;50.814;8.530;2022-09-09T04:05:09;3.30;;;1.80;;
30173;SDS011;16985;50.814;8.530;2022-09-09T04:07:36;3.13;;;1.33;;
30173;SDS011;16985;50.814;8.530;2022-09-09T04:10:02;4.45;;;1.50;;
30173;SDS011;16985;50.814;8.530;2022-09-09T04:12:29;3.50;;;1.27;;
30173;SDS011;16985;50.814;8.530;2022-09-09T04:14:56;3.15;;;1.23;;
30173;SDS011;16985;50.814;8.530;2022-09-09T04:17:21;1.95;;;1.30;;
30173;SDS011;16985;50.814;8.530;2022-09-09T04:19:47;9.45;;;1.75;;
30173;SDS011;16985;50.814;8.530;2022-09-09T04:22:13;3.97;;;1.65;;
30173;SDS011;16985;50.814;8.530;2022-09-09T04:24:39;4.45;;;1.20;;
30173;SDS011;16985;50.814;8.530;2022-09-09T04:27:06;4.32;;;1.58;;
30173;SDS011;16985;50.814;8.530;2022-09-09T04:29:34;2.95;;;1.30;;
30173;SDS011;16985;50.814;8.530;2022-09-09T04:32:00;3.90;;;1.38;;
30173;SDS011;16985;50.814;8.530;2022-09-09T04:34:26;3.08;;;1.40;;
30173;SDS011;16985;50.814;8.530;2022-09-09T04:36:53;4.05;;;1.33;;
30173;SDS011;16985;50.814;8.530;2022-09-09T04:39:19;2.72;;;1.50;;
30173;SDS011;16985;50.814;8.530;2022-09-09T04:41:45;2.75;;;1.50;;
30173;SDS011;16985;50.814;8.530;2022-09-09T04:44:12;3.85;;;1.55;;
30173;SDS011;16985;50.814;8.530;2022-09-09T04:46:38;4.50;;;1.80;;
30173;SDS011;16985;50.814;8.530;2022-09-09T04:49:04;4.38;;;1.73;;
30173;SDS011;16985;50.814;8.530;2022-09-09T04:51:31;2.25;;;1.50;;
30173;SDS011;16985;50.814;8.530;2022-09-09T04:53:57;3.67;;;1.60;;
30173;SDS011;16985;50.814;8.530;2022-09-09T04:56:24;2.53;;;1.70;;
30173;SDS011;16985;50.814;8.530;2022-09-09T04:58:55;2.22;;;1.25;;
30173;SDS011;16985;50.814;8.530;2022-09-09T05:01:25;5.18;;;1.80;;
30173;SDS011;16985;50.814;8.530;2022-09-09T05:03:56;2.30;;;1.30;;
30173;SDS011;16985;50.814;8.530;2022-09-09T05:06:22;2.92;;;1.60;;
30173;SDS011;16985;50.814;8.530;2022-09-09T05:08:54;5.80;;;1.40;;
30173;SDS011;16985;50.814;8.530;2022-09-09T05:11:27;9.70;;;2.10;;
30173;SDS011;16985;50.814;8.530;2022-09-09T05:14:02;3.88;;;1.65;;
30173;SDS011;16985;50.814;8.530;2022-09-09T05:16:29;3.08;;;1.70;;
30173;SDS011;16985;50.814;8.530;2022-09-09T05:18:56;7.10;;;1.45;;
30173;SDS011;16985;50.814;8.530;2022-09-09T05:21:23;2.03;;;1.23;;
30173;SDS011;16985;50.814;8.530;2022-09-09T05:23:53;7.35;;;2.10;;
30173;SDS011;16985;50.814;8.530;2022-09-09T05:26:20;3.25;;;1.40;;
30173;SDS011;16985;50.814;8.530;2022-09-09T05:28:49;7.05;;;1.95;;
30173;SDS011;16985;50.814;8.530;2022-09-09T05:31:15;6.35;;;2.17;;
30173;SDS011;16985;50.814;8.530;2022-09-09T05:33:45;9.68;;;2.70;;
30173;SDS011;16985;50.814;8.530;2022-09-09T05:36:14;6.75;;;3.50;;
30173;SDS011;16985;50.814;8.530;2022-09-09T05:38:44;9.75;;;3.75;;
30173;SDS011;16985;50.814;8.530;2022-09-09T05:41:11;13.00;;;3.33;;
30173;SDS011;16985;50.814;8.530;2022-09-09T05:43:41;7.53;;;3.00;;
30173;SDS011;16985;50.814;8.530;2022-09-09T05:46:10;12.10;;;3.88;;
30173;SDS011;16985;50.814;8.530;2022-09-09T05:48:42;14.30;;;4.00;;
30173;SDS011;16985;50.814;8.530;2022-09-09T05:51:15;10.77;;;4.88;;
30173;SDS011;16985;50.814;8.530;2022-09-09T05:53:47;11.10;;;4.93;;
30173;SDS011;16985;50.814;8.530;2022-09-09T05:56:17;10.77;;;4.28;;
30173;SDS011;16985;50.814;8.530;2022-09-09T05:58:50;7.25;;;3.42;;
30173;SDS011;16985;50.814;8.530;2022-09-09T06:01:23;7.60;;;3.40;;
30173;SDS011;16985;50.814;8.530;2022-09-09T06:04:00;9.57;;;3.28;;
30173;SDS011;16985;50.814;8.530;2022-09-09T06:06:29;8.73;;;3.20;;
30173;SDS011;16985;50.814;8.530;2022-09-09T06:09:03;7.80;;;2.30;;
30173;SDS011;16985;50.814;8.530;2022-09-09T06:11:34;9.68;;;3.30;;
30173;SDS011;16985;50.814;8.530;2022-09-09T06:14:03;4.90;;;2.50;;
30173;SDS011;16985;50.814;8.530;2022-09-09T06:16:30;8.32;;;3.38;;
30173;SDS011;16985;50.814;8.530;2022-09-09T06:19:04;11.02;;;4.07;;
30173;SDS011;16985;50.814;8.530;2022-09-09T06:21:31;8.23;;;3.35;;
30173;SDS011;16985;50.814;8.530;2022-09-09T06:24:07;7.65;;;3.10;;
30173;SDS011;16985;50.814;8.530;2022-09-09T06:26:34;9.65;;;3.40;;
30173;SDS011;16985;50.814;8.530;2022-09-09T06:29:10;10.60;;;4.13;;
30173;SDS011;16985;50.814;8.530;2022-09-09T06:31:37;9.30;;;3.38;;
30173;SDS011;16985;50.814;8.530;2022-09-09T06:34:14;12.77;;;3.13;;
30173;SDS011;16985;50.814;8.530;2022-09-09T06:36:44;7.55;;;2.92;;
30173;SDS011;16985;50.814;8.530;2022-09-09T06:39:11;12.55;;;4.70;;
30173;SDS011;16985;50.814;8.530;2022-09-09T06:41:38;11.70;;;3.58;;
30173;SDS011;16985;50.814;8.530;2022-09-09T06:44:07;9.98;;;3.22;;
30173;SDS011;16985;50.814;8.530;2022-09-09T06:46:39;10.10;;;2.83;;
30173;SDS011;16985;50.814;8.530;2022-09-09T06:49:07;7.88;;;2.85;;
30173;SDS011;16985;50.814;8.530;2022-09-09T06:51:34;10.20;;;2.47;;
30173;SDS011;16985;50.814;8.530;2022-09-09T06:54:08;8.90;;;2.15;;
30173;SDS011;16985;50.814;8.530;2022-09-09T06:56:35;6.03;;;2.15;;
30173;SDS011;16985;50.814;8.530;2022-09-09T06:59:09;11.93;;;2.75;;
30173;SDS011;16985;50.814;8.530;2022-09-09T07:01:40;11.40;;;3.40;;
30173;SDS011;16985;50.814;8.530;2022-09-09T07:04:16;11.68;;;2.10;;
30173;SDS011;16985;50.814;8.530;2022-09-09T07:06:44;4.63;;;1.90;;
30173;SDS011;16985;50.814;8.530;2022-09-09T07:09:15;6.90;;;2.08;;
30173;SDS011;16985;50.814;8.530;2022-09-09T07:11:48;6.30;;;1.58;;
30173;SDS011;16985;50.814;8.530;2022-09-09T07:14:21;5.43;;;1.70;;
30173;SDS011;16985;50.814;8.530;2022-09-09T07:16:51;7.05;;;1.70;;
30173;SDS011;16985;50.814;8.530;2022-09-09T07:19:17;5.50;;;1.55;;
30173;SDS011;16985;50.814;8.530;2022-09-09T07:24:14;7.07;;;1.52;;
30173;SDS011;16985;50.814;8.530;2022-09-09T07:26:41;4.72;;;1.70;;
30173;SDS011;16985;50.814;8.530;2022-09-09T07:29:10;6.40;;;1.65;;
30173;SDS011;16985;50.814;8.530;2022-09-09T07:31:39;7.90;;;1.60;;
30173;SDS011;16985;50.814;8.530;2022-09-09T07:34:09;7.07;;;1.65;;
30173;SDS011;16985;50.814;8.530;2022-09-09T07:36:36;10.20;;;1.90;;
30173;SDS011;16985;50.814;8.530;2022-09-09T07:39:07;4.38;;;1.88;;
30173;SDS011;16985;50.814;8.530;2022-09-09T07:41:47;5.72;;;1.67;;
30173;SDS011;16985;50.814;8.530;2022-09-09T07:44:20;10.60;;;3.53;;
30173;SDS011;16985;50.814;8.530;2022-09-09T07:46:58;5.70;;;1.90;;
30173;SDS011;16985;50.814;8.530;2022-09-09T07:49:30;10.57;;;2.08;;
30173;SDS011;16985;50.814;8.530;2022-09-09T07:51:56;5.80;;;1.40;;
30173;SDS011;16985;50.814;8.530;2022-09-09T07:54:22;9.32;;;1.77;;
30173;SDS011;16985;50.814;8.530;2022-09-09T07:56:51;5.38;;;1.33;;
30173;SDS011;16985;50.814;8.530;2022-09-09T07:59:20;3.67;;;1.40;;
30173;SDS011;16985;50.814;8.530;2022-09-09T08:01:49;4.35;;;1.50;;
30173;SDS011;16985;50.814;8.530;2022-09-09T08:04:22;5.00;;;1.25;;
30173;SDS011;16985;50.814;8.530;2022-09-09T08:06:51;7.13;;;1.73;;
30173;SDS011;16985;50.814;8.530;2022-09-09T08:09:22;6.55;;;1.75;;
30173;SDS011;16985;50.814;8.530;2022-09-09T08:11:52;6.57;;;2.15;;
30173;SDS011;16985;50.814;8.530;2022-09-09T08:14:18;7.55;;;1.80;;
30173;SDS011;16985;50.814;8.530;2022-09-09T08:16:46;6.50;;;1.92;;
30173;SDS011;16985;50.814;8.530;2022-09-09T08:19:17;6.60;;;1.48;;
30173;SDS011;16985;50.814;8.530;2022-09-09T08:21:44;8.00;;;2.17;;
30173;SDS011;16985;50.814;8.530;2022-09-09T08:24:13;9.55;;;1.80;;
30173;SDS011;16985;50.814;8.530;2022-09-09T08:26:50;3.35;;;1.58;;
30173;SDS011;16985;50.814;8.530;2022-09-09T08:29:20;7.95;;;1.80;;
30173;SDS011;16985;50.814;8.530;2022-09-09T08:31:47;3.28;;;1.73;;
30173;SDS011;16985;50.814;8.530;2022-09-09T08:34:16;3.17;;;1.33;;
30173;SDS011;16985;50.814;8.530;2022-09-09T08:36:47;5.30;;;1.15;;
30173;SDS011;16985;50.814;8.530;2022-09-09T08:39:15;4.32;;;1.60;;
30173;SDS011;16985;50.814;8.530;2022-09-09T08:50:34;4.82;;;1.27;;
30173;SDS011;16985;50.814;8.530;2022-09-09T08:55:56;4.07;;;1.17;;
30173;SDS011;16985;50.814;8.530;2022-09-09T08:58:34;3.50;;;1.30;;
30173;SDS011;16985;50.814;8.530;2022-09-09T09:03:57;6.95;;;1.55;;
30173;SDS011;16985;50.814;8.530;2022-09-09T09:12:50;2.83;;;0.90;;
30173;SDS011;16985;50.814;8.530;2022-09-09T09:15:26;11.40;;;2.00;;
30173;SDS011;16985;50.814;8.530;2022-09-09T09:18:03;6.18;;;1.38;;
30173;SDS011;16985;50.814;8.530;2022-09-09T09:20:47;7.90;;;1.30;;
30173;SDS011;16985;50.814;8.530;2022-09-09T09:23:33;4.60;;;1.20;;
30173;SDS011;16985;50.814;8.530;2022-09-09T09:26:32;8.00;;;1.40;;
30173;SDS011;16985;50.814;8.530;2022-09-09T09:29:01;4.65;;;1.40;;
30173;SDS011;16985;50.814;8.530;2022-09-09T09:31:45;4.60;;;1.50;;
30173;SDS011;16985;50.814;8.530;2022-09-09T09:34:20;4.75;;;1.20;;
30173;SDS011;16985;50.814;8.530;2022-09-09T09:36:58;4.82;;;1.52;;
30173;SDS011;16985;50.814;8.530;2022-09-09T09:39:31;4.40;;;1.88;;
30173;SDS011;16985;50.814;8.530;2022-09-09T09:42:10;5.95;;;1.75;;
30173;SDS011;16985;50.814;8.530;2022-09-09T09:44:39;5.35;;;1.45;;
30173;SDS011;16985;50.814;8.530;2022-09-09T09:52:29;6.90;;;1.85;;
30173;SDS011;16985;50.814;8.530;2022-09-09T09:54:59;2.15;;;1.10;;
30173;SDS011;16985;50.814;8.530;2022-09-09T09:57:32;3.72;;;1.17;;
30173;SDS011;16985;50.814;8.530;2022-09-09T10:02:44;6.35;;;1.45;;
30173;SDS011;16985;50.814;8.530;2022-09-09T10:05:18;5.40;;;1.70;;
30173;SDS011;16985;50.814;8.530;2022-09-09T10:13:30;4.43;;;1.10;;
30173;SDS011;16985;50.814;8.530;2022-09-09T10:19:29;4.25;;;1.02;;
30173;SDS011;16985;50.814;8.530;2022-09-09T10:32:59;2.72;;;1.02;;
30173;SDS011;16985;50.814;8.530;2022-09-09T10:35:49;5.70;;;1.17;;
30173;SDS011;16985;50.814;8.530;2022-09-09T10:38:28;3.35;;;0.95;;
30173;SDS011;16985;50.814;8.530;2022-09-09T10:54:59;7.93;;;1.52;;
30173;SDS011;16985;50.814;8.530;2022-09-09T10:57:48;5.57;;;1.50;;
30173;SDS011;16985;50.814;8.530;2022-09-09T11:00:24;8.75;;;1.25;;
30173;SDS011;16985;50.814;8.530;2022-09-09T11:03:02;6.03;;;1.10;;
30173;SDS011;16985;50.814;8.530;2022-09-09T11:05:41;6.90;;;1.20;;
30173;SDS011;16985;50.814;8.530;2022-09-09T11:08:26;5.97;;;1.42;;
30173;SDS011;16985;50.814;8.530;2022-09-09T11:14:10;5.72;;;1.27;;
30173;SDS011;16985;50.814;8.530;2022-09-09T11:17:10;8.90;;;1.55;;
30173;SDS011;16985;50.814;8.530;2022-09-09T11:19:47;4.78;;;1.00;;
30173;SDS011;16985;50.814;8.530;2022-09-09T11:22:20;5.25;;;1.20;;
30173;SDS011;16985;50.814;8.530;2022-09-09T11:25:18;4.88;;;1.20;;
30173;SDS011;16985;50.814;8.530;2022-09-09T11:28:04;6.00;;;1.30;;
30173;SDS011;16985;50.814;8.530;2022-09-09T11:36:43;2.78;;;0.80;;
30173;SDS011;16985;50.814;8.530;2022-09-09T11:39:31;3.42;;;1.10;;
30173;SDS011;16985;50.814;8.530;2022-09-09T11:42:18;2.85;;;0.80;;
30173;SDS011;16985;50.814;8.530;2022-09-09T11:44:46;8.27;;;1.30;;
30173;SDS011;16985;50.814;8.530;2022-09-09T11:47:30;7.18;;;1.67;;
30173;SDS011;16985;50.814;8.530;2022-09-09T11:52:44;3.95;;;0.70;;
30173;SDS011;16985;50.814;8.530;2022-09-09T11:55:25;5.45;;;1.80;;
30173;SDS011;16985;50.814;8.530;2022-09-09T11:58:05;6.63;;;1.52;;
30173;SDS011;16985;50.814;8.530;2022-09-09T12:00:44;2.47;;;1.15;;
30173;SDS011;16985;50.814;8.530;2022-09-09T12:06:20;5.57;;;0.90;;
30173;SDS011;16985;50.814;8.530;2022-09-09T12:09:06;7.13;;;1.20;;
30173;SDS011;16985;50.814;8.530;2022-09-09T12:11:42;4.80;;;0.82;;
30173;SDS011;16985;50.814;8.530;2022-09-09T12:14:18;5.20;;;1.20;;
30173;SDS011;16985;50.814;8.530;2022-09-09T12:19:39;3.47;;;0.98;;
30173;SDS011;16985;50.814;8.530;2022-09-09T12:24:44;3.03;;;0.80;;
30173;SDS011;16985;50.814;8.530;2022-09-09T12:27:24;4.43;;;0.93;;
30173;SDS011;16985;50.814;8.530;2022-09-09T12:32:29;3.67;;;0.82;;
30173;SDS011;16985;50.814;8.530;2022-09-09T12:37:50;3.08;;;0.80;;
30173;SDS011;16985;50.814;8.530;2022-09-09T12:40:32;2.22;;;0.70;;
30173;SDS011;16985;50.814;8.530;2022-09-09T12:43:14;2.42;;;0.73;;
30173;SDS011;16985;50.814;8.530;2022-09-09T12:45:46;5.22;;;1.10;;
30173;SDS011;16985;50.814;8.530;2022-09-09T12:48:15;3.88;;;1.05;;
30173;SDS011;16985;50.814;8.530;2022-09-09T12:50:45;4.35;;;1.00;;
30173;SDS011;16985;50.814;8.530;2022-09-09T12:53:36;9.98;;;1.00;;
30173;SDS011;16985;50.814;8.530;2022-09-09T12:56:06;3.25;;;1.30;;
30173;SDS011;16985;50.814;8.530;2022-09-09T12:58:34;3.13;;;0.70;;
30173;SDS011;16985;50.814;8.530;2022-09-09T13:01:02;2.63;;;1.05;;
30173;SDS011;16985;50.814;8.530;2022-09-09T13:05:58;2.88;;;0.88;;
30173;SDS011;16985;50.814;8.530;2022-09-09T13:08:36;2.72;;;0.68;;
30173;SDS011;16985;50.814;8.530;2022-09-09T13:11:03;8.38;;;1.30;;
30173;SDS011;16985;50.814;8.530;2022-09-09T13:13:37;2.92;;;0.75;;
30173;SDS011;16985;50.814;8.530;2022-09-09T13:16:18;2.33;;;0.90;;
30173;SDS011;16985;50.814;8.530;2022-09-09T13:18:48;2.60;;;0.70;;
30173;SDS011;16985;50.814;8.530;2022-09-09T13:21:15;4.07;;;0.80;;
30173;SDS011;16985;50.814;8.530;2022-09-09T13:23:41;2.40;;;1.35;;
30173;SDS011;16985;50.814;8.530;2022-09-09T13:28:49;4.72;;;0.90;;
30173;SDS011;16985;50.814;8.530;2022-09-09T13:31:24;2.65;;;1.20;;
30173;SDS011;16985;50.814;8.530;2022-09-09T13:33:55;2.38;;;0.80;;
30173;SDS011;16985;50.814;8.530;2022-09-09T13:36:28;2.95;;;0.70;;
30173;SDS011;16985;50.814;8.530;2022-09-09T13:38:57;3.38;;;0.77;;
30173;SDS011;16985;50.814;8.530;2022-09-09T13:41:34;6.45;;;0.82;;
30173;SDS011;16985;50.814;8.530;2022-09-09T13:44:06;4.13;;;0.82;;
30173;SDS011;16985;50.814;8.530;2022-09-09T13:46:44;1.42;;;0.65;;
30173;SDS011;16985;50.814;8.530;2022-09-09T13:51:42;3.83;;;0.82;;
30173;SDS011;16985;50.814;8.530;2022-09-09T13:54:12;4.18;;;1.00;;
30173;SDS011;16985;50.814;8.530;2022-09-09T13:56:41;3.78;;;0.85;;
30173;SDS011;16985;50.814;8.530;2022-09-09T13:59:13;4.80;;;1.10;;
30173;SDS011;16985;50.814;8.530;2022-09-09T14:01:41;3.20;;;1.15;;
30173;SDS011;16985;50.814;8.530;2022-09-09T14:04:08;2.35;;;0.93;;
30173;SDS011;16985;50.814;8.530;2022-09-09T14:06:35;5.35;;;1.15;;
30173;SDS011;16985;50.814;8.530;2022-09-09T14:09:11;19.67;;;2.58;;
30173;SDS011;16985;50.814;8.530;2022-09-09T14:11:44;2.30;;;0.82;;
30173;SDS011;16985;50.814;8.530;2022-09-09T14:14:13;0.82;;;0.50;;
30173;SDS011;16985;50.814;8.530;2022-09-09T14:16:38;3.78;;;0.80;;
30173;SDS011;16985;50.814;8.530;2022-09-09T14:19:08;3.88;;;0.80;;
30173;SDS011;16985;50.814;8.530;2022-09-09T14:21:34;5.15;;;0.82;;
30173;SDS011;16985;50.814;8.530;2022-09-09T14:24:00;2.65;;;0.80;;
30173;SDS011;16985;50.814;8.530;2022-09-09T14:26:26;3.92;;;1.13;;
30173;SDS011;16985;50.814;8.530;2022-09-09T14:28:53;3.80;;;0.97;;
30173;SDS011;16985;50.814;8.530;2022-09-09T14:31:19;9.02;;;1.02;;
30173;SDS011;16985;50.814;8.530;2022-09-09T14:33:45;1.83;;;0.70;;
30173;SDS011;16985;50.814;8.530;2022-09-09T14:36:11;4.70;;;0.80;;
30173;SDS011;16985;50.814;8.530;2022-09-09T14:38:38;2.95;;;0.80;;
30173;SDS011;16985;50.814;8.530;2022-09-09T14:41:11;3.28;;;0.70;;
30173;SDS011;16985;50.814;8.530;2022-09-09T14:43:42;2.95;;;0.88;;
30173;SDS011;16985;50.814;8.530;2022-09-09T14:46:09;3.53;;;1.10;;
30173;SDS011;16985;50.814;8.530;2022-09-09T14:48:40;6.72;;;0.80;;
30173;SDS011;16985;50.814;8.530;2022-09-09T14:53:34;1.83;;;0.50;;
30173;SDS011;16985;50.814;8.530;2022-09-09T14:56:20;2.47;;;0.60;;
30173;SDS011;16985;50.814;8.530;2022-09-09T14:58:48;4.15;;;0.60;;
30173;SDS011;16985;50.814;8.530;2022-09-09T15:01:15;1.95;;;0.77;;
30173;SDS011;16985;50.814;8.530;2022-09-09T15:03:52;4.55;;;0.70;;
30173;SDS011;16985;50.814;8.530;2022-09-09T15:06:23;2.58;;;0.80;;
30173;SDS011;16985;50.814;8.530;2022-09-09T15:08:51;5.10;;;1.00;;
30173;SDS011;16985;50.814;8.530;2022-09-09T15:11:25;4.68;;;0.80;;
30173;SDS011;16985;50.814;8.530;2022-09-09T15:13:53;1.80;;;0.70;;
30173;SDS011;16985;50.814;8.530;2022-09-09T15:16:19;4.25;;;0.93;;
30173;SDS011;16985;50.814;8.530;2022-09-09T15:18:50;3.33;;;0.77;;
30173;SDS011;16985;50.814;8.530;2022-09-09T15:21:20;4.72;;;1.00;;
30173;SDS011;16985;50.814;8.530;2022-09-09T15:23:48;3.08;;;0.80;;
30173;SDS011;16985;50.814;8.530;2022-09-09T15:26:15;2.67;;;0.90;;
30173;SDS011;16985;50.814;8.530;2022-09-09T15:28:42;6.20;;;0.77;;
30173;SDS011;16985;50.814;8.530;2022-09-09T15:31:16;2.65;;;1.00;;
30173;SDS011;16985;50.814;8.530;2022-09-09T15:33:47;2.03;;;0.73;;
30173;SDS011;16985;50.814;8.530;2022-09-09T15:36:23;2.20;;;0.80;;
30173;SDS011;16985;50.814;8.530;2022-09-09T15:38:51;4.50;;;0.77;;
30173;SDS011;16985;50.814;8.530;2022-09-09T15:41:18;3.65;;;0.88;;
30173;SDS011;16985;50.814;8.530;2022-09-09T15:43:47;2.55;;;0.90;;
30173;SDS011;16985;50.814;8.530;2022-09-09T15:46:52;4.65;;;1.02;;
30173;SDS011;16985;50.814;8.530;2022-09-09T15:49:18;1.83;;;0.73;;
30173;SDS011;16985;50.814;8.530;2022-09-09T15:51:59;1.95;;;0.60;;
30173;SDS011;16985;50.814;8.530;2022-09-09T15:54:30;1.35;;;0.70;;
30173;SDS011;16985;50.814;8.530;2022-09-09T15:57:01;3.30;;;0.70;;
30173;SDS011;16985;50.814;8.530;2022-09-09T15:59:29;1.52;;;0.50;;
30173;SDS011;16985;50.814;8.530;2022-09-09T16:01:56;2.80;;;0.55;;
30173;SDS011;16985;50.814;8.530;2022-09-09T16:04:24;4.50;;;0.60;;
30173;SDS011;16985;50.814;8.530;2022-09-09T16:06:52;1.60;;;0.73;;
30173;SDS011;16985;50.814;8.530;2022-09-09T16:09:21;1.02;;;0.50;;
30173;SDS011;16985;50.814;8.530;2022-09-09T16:11:47;1.55;;;0.50;;
30173;SDS011;16985;50.814;8.530;2022-09-09T16:14:13;2.00;;;0.60;;
30173;SDS011;16985;50.814;8.530;2022-09-09T16:16:40;2.17;;;0.60;;
30173;SDS011;16985;50.814;8.530;2022-09-09T16:19:07;1.80;;;0.50;;
30173;SDS011;16985;50.814;8.530;2022-09-09T16:21:38;3.28;;;0.85;;
30173;SDS011;16985;50.814;8.530;2022-09-09T16:24:10;1.98;;;0.60;;
30173;SDS011;16985;50.814;8.530;2022-09-09T16:26:41;2.10;;;0.82;;
30173;SDS011;16985;50.814;8.530;2022-09-09T16:29:17;2.50;;;0.75;;
30173;SDS011;16985;50.814;8.530;2022-09-09T16:31:47;3.22;;;1.23;;
30173;SDS011;16985;50.814;8.530;2022-09-09T16:34:14;4.55;;;0.57;;
30173;SDS011;16985;50.814;8.530;2022-09-09T16:36:42;2.17;;;0.60;;
30173;SDS011;16985;50.814;8.530;2022-09-09T16:39:10;3.17;;;1.25;;
30173;SDS011;16985;50.814;8.530;2022-09-09T16:41:40;3.75;;;1.40;;
30173;SDS011;16985;50.814;8.530;2022-09-09T16:44:09;5.13;;;0.93;;
30173;SDS011;16985;50.814;8.530;2022-09-09T16:46:41;2.00;;;0.75;;
30173;SDS011;16985;50.814;8.530;2022-09-09T16:49:09;1.38;;;0.45;;
30173;SDS011;16985;50.814;8.530;2022-09-09T16:51:42;0.40;;;0.38;;
30173;SDS011;16985;50.814;8.530;2022-09-09T16:54:13;1.95;;;0.85;;
30173;SDS011;16985;50.814;8.530;2022-09-09T16:56:42;1.40;;;0.40;;
30173;SDS011;16985;50.814;8.530;2022-09-09T16:59:10;0.20;;;0.20;;
30173;SDS011;16985;50.814;8.530;2022-09-09T17:01:39;0.43;;;0.40;;
30173;SDS011;16985;50.814;8.530;2022-09-09T17:04:29;0.85;;;0.40;;
30173;SDS011;16985;50.814;8.530;2022-09-09T17:09:22;0.55;;;0.43;;
30173;SDS011;16985;50.814;8.530;2022-09-09T17:11:52;2.63;;;0.40;;
30173;SDS011;16985;50.814;8.530;2022-09-09T17:14:22;0.40;;;0.40;;
30173;SDS011;16985;50.814;8.530;2022-09-09T17:16:49;0.40;;;0.40;;
30173;SDS011;16985;50.814;8.530;2022-09-09T17:19:15;0.30;;;0.30;;
30173;SDS011;16985;50.814;8.530;2022-09-09T17:21:44;0.60;;;0.50;;
30173;SDS011;16985;50.814;8.530;2022-09-09T17:24:12;1.83;;;0.40;;
30173;SDS011;16985;50.814;8.530;2022-09-09T17:26:38;0.70;;;0.40;;
30173;SDS011;16985;50.814;8.530;2022-09-09T17:29:12;0.52;;;0.40;;
30173;SDS011;16985;50.814;8.530;2022-09-09T17:31:38;1.27;;;0.50;;
30173;SDS011;16985;50.814;8.530;2022-09-09T17:34:04;0.50;;;0.32;;
30173;SDS011;16985;50.814;8.530;2022-09-09T17:36:31;1.23;;;0.40;;
30173;SDS011;16985;50.814;8.530;2022-09-09T17:38:59;1.50;;;0.50;;
30173;SDS011;16985;50.814;8.530;2022-09-09T17:41:27;2.25;;;0.82;;
30173;SDS011;16985;50.814;8.530;2022-09-09T17:44:01;0.75;;;0.40;;
30173;SDS011;16985;50.814;8.530;2022-09-09T17:46:38;0.75;;;0.40;;
30173;SDS011;16985;50.814;8.530;2022-09-09T17:49:07;1.08;;;0.57;;
30173;SDS011;16985;50.814;8.530;2022-09-09T17:51:36;2.45;;;0.52;;
30173;SDS011;16985;50.814;8.530;2022-09-09T17:54:04;0.90;;;0.52;;